Port Clinton, PA (19549)

11:25 PM EST on February 08, 2016 (GMT -0500)
Tilden | | Change Station
CLOSE
Current Station
Personal Weather Station
Location: Hamburg, PA
Elevation: 715 ft
Nearby Weather Stations

Elev 715 ft 40.56 °N, 76.04 °W | Updated 7 minutes ago

Snow
Snow
30.2 °F
Feels Like 30 °F
N
2.2
Wind Variable Wind from East

Today
High -- | Low -- °F
--% Chance of Precip.
Yesterday
High -- | Low -- °F
Precip. -- in
Pressure 29.69 in
Visibility 2.5 miles
Clouds Mostly Cloudy 1200 ft
Overcast 2000 ft
Windchill 30 °F
Dew Point 29 °F
Humidity 94%
Rainfall 0.00 in
Snow Depth Not available.
7:06 AM 5:30 PM
New Moon, 0% visible
SPECI KRDG 090418Z AUTO 12006KT 2 1/2SM -SN BR BKN012 OVC020 00/M02 A2969 RMK AO2 P0000 T00001017
Pressure 29.69 in
Visibility 2.5 miles
Clouds Mostly Cloudy 1200 ft
Overcast 2000 ft
Windchill 30 °F
Dew Point 29 °F
Humidity 94%
Rainfall 0.00 in
Snow Depth Not available.
7:06 AM 5:30 PM
New Moon, 0% visible
SPECI KRDG 090418Z AUTO 12006KT 2 1/2SM -SN BR BKN012 OVC020 00/M02 A2969 RMK AO2 P0000 T00001017

10-Day Weather Forecast

Almanac

Astronomy

Feb. 08, 2016 Rise Set
Actual Time
Civil Twilight
Nautical Twilight
Astronomical Twilight
Moon
Length of Visible Light
Length of Day
Tomorrow will be .
, % of the Moon is Illuminated

Today's Extremes

State Highs State Lows

Community

WunderPhotos

Upload Photos

1,891,536 photos uploaded!

WunderBlog® & News

Nearby

Air Quality

  Air Quality AQ Index Pollutant
Not available.

Snow Depth

Station Depth Elevation

Earthquake Activity

City Distance Mag. Time & Date
Minimum magnitude displayed is 2.5.

Coastal Water Temperatures

Place Temperature

Stations

Nearby Weather Stations

Station Location Temp. Windchill Dew Point Humidity Wind Precip. Elev Updated Type
                   

Watches & Warnings

There are currently no watches in effect.